Time;durP1;ratioP1;P1;durP2;ratioP2;P2;SDS_P1;SDS_P2;PMS_P1;PMS_P2;Temp;Humidity;BMP_temperature;BMP_pressure;BME280_temperature;BME280_humidity;BME280_pressure;Samples;Min_cycle;Max_cycle;Signal;HPM_P1;HPM_P2
2023/08/25 04:22:33;;;;;;;18.30;9.27;;;;;;;18.73;100.00;99623.28;5114194;27;20386;-72
2023/08/25 04:24:59;;;;;;;20.92;11.00;;;;;;;18.81;100.00;99618.31;5130227;27;20039;-72
2023/08/25 04:27:24;;;;;;;15.77;9.63;;;;;;;18.81;100.00;99618.31;5091342;28;20039;-72
2023/08/25 04:29:51;;;;;;;13.90;9.40;;;;;;;18.81;100.00;99618.31;5107725;28;20119;-72
2023/08/25 04:32:18;;;;;;;13.57;8.88;;;;;;;18.78;100.00;99623.38;5094918;28;20402;-72
2023/08/25 04:34:44;;;;;;;16.15;9.05;;;;;;;18.68;100.00;99621.31;5088223;28;20048;-73
2023/08/25 04:37:09;;;;;;;17.05;9.80;;;;;;;18.66;100.00;99621.56;5087815;28;20043;-73
2023/08/25 04:39:35;;;;;;;20.58;12.57;;;;;;;18.71;100.00;99623.50;5087593;28;20046;-73
2023/08/25 04:42:01;;;;;;;14.68;9.48;;;;;;;18.75;100.00;99615.78;5087688;28;20032;-73
2023/08/25 04:44:27;;;;;;;12.88;8.30;;;;;;;18.78;100.00;99610.72;5087769;28;20032;-71
2023/08/25 04:46:52;;;;;;;13.88;8.70;;;;;;;18.82;100.00;99621.84;5105096;28;20378;-72
2023/08/25 04:49:18;;;;;;;16.23;8.95;;;;;;;18.78;100.00;99617.97;5107299;28;20036;-72
2023/08/25 04:51:44;;;;;;;16.70;8.68;;;;;;;18.79;100.00;99631.25;5110785;28;20425;-72
2023/08/25 04:54:09;;;;;;;15.80;8.57;;;;;;;18.78;100.00;99634.16;5110085;28;20044;-55
2023/08/25 04:56:38;;;;;;;14.52;9.25;;;;;;;18.83;100.00;99636.94;5109418;28;20494;-50
2023/08/25 04:59:05;;;;;;;17.90;11.02;;;;;;;18.87;100.00;99648.91;5106985;28;20509;-51
2023/08/25 05:01:31;;;;;;;13.20;8.57;;;;;;;18.92;100.00;99651.72;5107671;28;20073;-51
2023/08/25 05:03:57;;;;;;;15.13;8.93;;;;;;;18.97;100.00;99651.78;5107839;28;20129;-51
2023/08/25 05:06:22;;;;;;;14.23;7.57;;;;;;;19.03;100.00;99658.91;5107443;28;20031;-54
2023/08/25 05:08:48;;;;;;;11.60;7.78;;;;;;;19.07;100.00;99657.38;5106987;28;20039;-57
2023/08/25 05:11:16;;;;;;;14.98;8.75;;;;;;;19.10;100.00;99674.94;5114717;28;20047;-52
2023/08/25 05:13:41;;;;;;;11.20;8.30;;;;;;;19.15;100.00;99683.16;5127941;28;20040;-51
2023/08/25 05:16:09;;;;;;;12.90;8.02;;;;;;;19.21;100.00;99704.59;5127970;28;20086;-51
2023/08/25 05:18:45;;;;;;;15.57;8.32;;;;;;;19.31;100.00;99730.97;5125271;27;20039;-50
2023/08/25 05:21:11;;;;;;;15.50;8.20;;;;;;;19.37;100.00;99767.81;5107076;28;20506;-52
2023/08/25 05:23:42;;;;;;;17.90;8.60;;;;;;;19.44;100.00;99825.19;5106029;28;20026;-52
2023/08/25 05:26:08;;;;;;;11.93;8.35;;;;;;;19.51;100.00;99874.47;5107214;28;20605;-55
2023/08/25 05:28:33;;;;;;;15.13;8.73;;;;;;;19.62;100.00;99875.50;5107239;28;20127;-49
2023/08/25 05:31:00;;;;;;;11.25;7.72;;;;;;;19.73;100.00;99825.19;5106232;28;20114;-50
2023/08/25 05:33:46;;;;;;;12.95;8.25;;;;;;;19.79;100.00;99799.91;5095615;28;20043;-50
2023/08/25 05:36:50;;;;;;;11.32;8.48;;;;;;;19.81;100.00;99795.06;5090948;28;20165;-56
2023/08/25 05:39:18;;;;;;;14.70;8.35;;;;;;;19.80;100.00;99788.03;5093255;28;20134;-53
2023/08/25 05:41:43;;;;;;;12.10;8.57;;;;;;;19.77;100.00;99802.84;5093365;28;20024;-52
2023/08/25 05:44:09;;;;;;;11.65;8.25;;;;;;;19.85;100.00;99817.84;5093392;28;20165;-50
2023/08/25 05:46:35;;;;;;;11.90;7.45;;;;;;;19.88;100.00;99813.81;5094570;28;20028;-53
2023/08/25 05:49:01;;;;;;;13.68;8.32;;;;;;;19.93;100.00;99911.22;5093065;28;20039;-53
2023/08/25 05:51:26;;;;;;;10.70;7.80;;;;;;;19.95;100.00;99963.13;5094489;28;20539;-54
2023/08/25 05:53:52;;;;;;;17.75;8.35;;;;;;;19.96;100.00;100019.69;5093224;28;20040;-50
2023/08/25 05:56:18;;;;;;;18.35;8.30;;;;;;;19.81;100.00;100053.66;5094412;28;20047;-51
2023/08/25 05:58:44;;;;;;;25.13;8.45;;;;;;;20.16;100.00;100094.16;5094203;28;20081;-65
2023/08/25 06:01:10;;;;;;;23.23;8.80;;;;;;;19.72;100.00;100043.22;5094385;28;20046;-52
2023/08/25 06:03:36;;;;;;;18.52;9.35;;;;;;;19.58;100.00;100044.56;5094341;28;20067;-50
2023/08/25 06:06:01;;;;;;;13.23;8.05;;;;;;;19.52;100.00;100019.28;5094226;28;20071;-50
2023/08/25 06:08:27;;;;;;;13.27;8.50;;;;;;;19.49;100.00;100002.72;5094227;28;20036;-55
2023/08/25 06:10:52;;;;;;;12.77;8.77;;;;;;;19.49;100.00;100002.72;5094000;28;20394;-52
2023/08/25 06:13:18;;;;;;;14.23;8.65;;;;;;;19.42;100.00;99961.50;5094231;28;20046;-52
2023/08/25 06:15:44;;;;;;;16.25;8.63;;;;;;;19.43;100.00;99931.59;5094095;28;20447;-50
2023/08/25 06:18:09;;;;;;;16.05;9.65;;;;;;;19.42;100.00;99902.09;5094017;28;20032;-51
2023/08/25 06:20:35;;;;;;;17.48;9.48;;;;;;;19.36;100.00;99879.56;5093674;28;20101;-54
2023/08/25 06:23:00;;;;;;;21.60;10.43;;;;;;;19.36;100.00;99851.72;5093955;28;20040;-51
2023/08/25 06:25:26;;;;;;;19.58;9.55;;;;;;;19.36;100.00;99857.13;5093939;28;20032;-52
2023/08/25 06:27:51;;;;;;;20.35;9.13;;;;;;;19.36;100.00;99855.25;5093378;28;20383;-50
2023/08/25 06:30:17;;;;;;;18.38;10.07;;;;;;;19.38;100.00;99846.94;5093645;28;20509;-54
2023/08/25 06:32:43;;;;;;;17.50;8.73;;;;;;;19.37;100.00;99821.00;5093926;28;20519;-52
2023/08/25 06:35:10;;;;;;;15.80;9.35;;;;;;;19.37;100.00;99802.09;5093723;28;20043;-55
2023/08/25 06:37:36;;;;;;;17.75;10.38;;;;;;;19.38;100.00;99787.53;5093749;28;20386;-50
2023/08/25 06:40:05;;;;;;;17.83;9.40;;;;;;;19.39;100.00;99778.34;5093311;28;20040;-54
2023/08/25 06:42:31;;;;;;;20.15;10.80;;;;;;;19.40;100.00;99769.19;5093634;28;20044;-49
2023/08/25 06:44:56;;;;;;;21.63;9.82;;;;;;;19.39;100.00;99771.06;5092534;28;20173;-50
2023/08/25 06:47:22;;;;;;;14.40;9.10;;;;;;;19.42;100.00;99767.88;5081019;28;20052;-55
2023/08/25 06:49:47;;;;;;;14.98;9.32;;;;;;;19.38;100.00;99757.81;5082547;28;20036;-55
2023/08/25 06:52:12;;;;;;;15.20;7.85;;;;;;;19.34;100.00;99752.06;5081111;28;20174;-49
2023/08/25 06:54:38;;;;;;;12.63;7.50;;;;;;;19.34;100.00;99748.56;5082662;28;20036;-54
2023/08/25 06:57:03;;;;;;;11.68;7.50;;;;;;;19.34;100.00;99741.28;5083554;28;20037;-52
2023/08/25 06:59:28;;;;;;;10.50;6.60;;;;;;;19.39;100.00;99754.06;5081458;28;20564;-53
2023/08/25 07:01:54;;;;;;;13.60;7.32;;;;;;;19.43;100.00;99774.09;5082875;28;20185;-52
2023/08/25 07:04:19;;;;;;;9.20;6.63;;;;;;;19.45;100.00;99802.50;5086093;28;20055;-50
2023/08/25 07:06:45;;;;;;;12.02;7.20;;;;;;;19.42;100.00;99811.09;5084218;28;20036;-52
2023/08/25 07:09:13;;;;;;;10.75;6.35;;;;;;;19.46;100.00;99811.44;5081311;28;20032;-59
2023/08/25 07:11:38;;;;;;;10.27;6.75;;;;;;;19.48;100.00;99806.59;5082367;28;20498;-51
2023/08/25 07:14:04;;;;;;;12.57;6.30;;;;;;;19.43;100.00;99787.59;5083461;28;20107;-55
2023/08/25 07:16:29;;;;;;;11.93;6.38;;;;;;;19.42;100.00;99786.78;5081264;28;20037;-52
2023/08/25 07:18:54;;;;;;;11.02;7.90;;;;;;;19.42;100.00;99783.25;5082621;28;20167;-53
2023/08/25 07:21:21;;;;;;;7.97;5.25;;;;;;;19.43;100.00;99793.00;5082643;28;20048;-65
2023/08/25 07:23:46;;;;;;;8.07;5.00;;;;;;;19.46;100.00;99790.66;5081122;28;20043;-65
2023/08/25 07:26:12;;;;;;;13.38;5.43;;;;;;;19.46;100.00;99792.53;5082918;28;20028;-65
2023/08/25 07:28:37;;;;;;;10.73;5.00;;;;;;;19.48;100.00;99834.44;5083558;28;20077;-65
2023/08/25 07:31:04;;;;;;;6.88;4.28;;;;;;;19.49;100.00;99832.53;5083904;28;20388;-65
2023/08/25 07:33:29;;;;;;;6.20;3.72;;;;;;;19.45;100.00;99843.03;5083342;28;20036;-66
2023/08/25 07:35:57;;;;;;;8.48;4.32;;;;;;;19.43;100.00;99831.66;5081620;28;20042;-66
2023/08/25 07:38:22;;;;;;;;;;;;;;;19.43;100.00;99807.34;5081625;28;20077;-67
2023/08/25 07:40:48;;;;;;;6.30;3.80;;;;;;;19.45;100.00;99774.69;5082741;28;20333;-67
2023/08/25 07:43:13;;;;;;;6.72;4.05;;;;;;;19.39;100.00;99754.88;5081360;28;20481;-67
2023/08/25 07:45:39;;;;;;;8.15;3.15;;;;;;;19.46;100.00;99749.31;5081563;28;20063;-65
2023/08/25 07:48:05;;;;;;;5.63;2.65;;;;;;;19.50;100.00;99748.59;5088582;28;20036;-66
2023/08/25 07:50:31;;;;;;;5.78;3.00;;;;;;;19.47;100.00;99759.06;5092008;28;20402;-67
2023/08/25 07:52:58;;;;;;;8.23;3.20;;;;;;;19.58;100.00;99771.72;5092296;28;20574;-67
2023/08/25 07:55:24;;;;;;;4.80;3.37;;;;;;;19.54;100.00;99775.91;5092057;28;20122;-67
2023/08/25 07:57:50;;;;;;;7.40;3.72;;;;;;;19.56;100.00;99778.38;5091341;28;20371;-67
2023/08/25 08:00:17;;;;;;;6.43;3.30;;;;;;;19.53;100.00;99780.50;5091760;28;20047;-67
2023/08/25 08:02:44;;;;;;;16.95;5.10;;;;;;;19.51;100.00;99781.81;5092432;28;20445;-67
2023/08/25 08:05:10;;;;;;;9.07;4.13;;;;;;;19.49;100.00;99784.75;5092127;28;20401;-67
2023/08/25 08:07:36;;;;;;;6.32;3.88;;;;;;;19.43;100.00;99771.38;5092725;28;20113;-67
2023/08/25 08:10:03;;;;;;;9.30;3.47;;;;;;;19.39;100.00;99762.16;5091833;28;20054;-67
2023/08/25 08:12:29;;;;;;;7.85;4.20;;;;;;;19.37;100.00;99757.00;5092130;28;20032;-67
2023/08/25 08:14:54;;;;;;;7.45;4.15;;;;;;;19.40;100.00;99744.88;5092086;28;20415;-68
2023/08/25 08:17:20;;;;;;;10.82;4.22;;;;;;;19.40;100.00;99734.09;5091944;28;20054;-67
2023/08/25 08:19:46;;;;;;;6.15;3.60;;;;;;;19.51;100.00;99725.09;5091827;28;20101;-68
2023/08/25 08:22:11;;;;;;;5.85;3.75;;;;;;;19.53;100.00;99717.56;5091828;28;20032;-67
2023/08/25 08:24:36;;;;;;;5.82;3.80;;;;;;;19.55;100.00;99728.13;5092029;28;20410;-67
2023/08/25 08:27:02;;;;;;;5.60;3.63;;;;;;;19.61;100.00;99725.28;5091929;28;20120;-67
2023/08/25 08:29:28;;;;;;;6.78;3.55;;;;;;;19.77;100.00;99723.66;5091642;28;20036;-67
2023/08/25 08:31:57;;;;;;;7.55;3.70;;;;;;;19.71;100.00;99705.75;5091864;28;20067;-68
2023/08/25 08:34:22;;;;;;;6.47;3.45;;;;;;;19.85;100.00;99693.53;5091866;28;20036;-65
2023/08/25 08:36:48;;;;;;;6.20;3.33;;;;;;;19.87;100.00;99699.50;5091757;28;20046;-65
2023/08/25 08:39:14;;;;;;;3.95;2.60;;;;;;;20.02;100.00;99682.69;5091532;28;20044;-65
2023/08/25 08:41:40;;;;;;;7.18;3.60;;;;;;;19.96;100.00;99678.28;5091810;28;20497;-67
2023/08/25 08:44:09;;;;;;;5.30;3.28;;;;;;;19.95;100.00;99673.91;5091799;28;20129;-67
2023/08/25 08:46:36;;;;;;;6.97;3.53;;;;;;;19.95;100.00;99665.81;5091739;28;20047;-66
2023/08/25 08:49:02;;;;;;;5.43;3.58;;;;;;;19.92;100.00;99661.75;5091580;28;20043;-65
2023/08/25 08:51:30;;;;;;;6.60;4.03;;;;;;;19.91;100.00;99659.28;5091768;28;20051;-66
2023/08/25 08:53:56;;;;;;;6.47;3.95;;;;;;;19.91;100.00;99653.88;5091707;28;20032;-66
2023/08/25 08:56:22;;;;;;;8.23;4.47;;;;;;;19.91;100.00;99659.28;5091591;28;20083;-66
2023/08/25 08:58:48;;;;;;;6.10;4.13;;;;;;;19.92;100.00;99661.75;5091372;28;20094;-66
2023/08/25 09:01:16;;;;;;;5.53;3.65;;;;;;;19.97;100.00;99656.41;5091656;28;20070;-66
2023/08/25 09:03:43;;;;;;;5.07;3.20;;;;;;;20.05;100.00;99649.75;5091679;28;20036;-66
2023/08/25 09:06:09;;;;;;;7.32;3.67;;;;;;;20.13;100.00;99656.63;5091504;28;20044;-65
2023/08/25 09:08:35;;;;;;;10.38;4.90;;;;;;;20.24;100.00;99664.63;5094029;28;20039;-66
2023/08/25 09:11:04;;;;;;;8.70;4.90;;;;;;;20.28;100.00;99662.25;5095209;28;20038;-66
2023/08/25 09:13:33;;;;;;;9.65;4.30;;;;;;;20.33;100.00;99662.28;5095384;28;20122;-66
2023/08/25 09:15:59;;;;;;;7.35;4.15;;;;;;;20.41;100.00;99666.44;5095176;28;20072;-66
2023/08/25 09:18:33;;;;;;;6.68;4.10;;;;;;;20.47;100.00;99652.75;5095201;28;20027;-66
2023/08/25 09:21:00;;;;;;;6.53;4.20;;;;;;;20.49;100.00;99615.47;5094862;28;20036;-66
2023/08/25 09:23:25;;;;;;;6.70;4.10;;;;;;;20.53;100.00;99619.28;5095221;28;20118;-65
2023/08/25 09:25:51;;;;;;;7.78;3.80;;;;;;;20.57;100.00;99615.00;5095189;28;20369;-65
2023/08/25 09:28:16;;;;;;;6.72;4.05;;;;;;;20.61;100.00;99609.91;5095138;28;20556;-65
2023/08/25 09:30:43;;;;;;;8.02;4.28;;;;;;;20.66;100.00;99644.31;5094886;28;20032;-66
2023/08/25 09:33:13;;;;;;;9.77;4.78;;;;;;;20.79;100.00;99671.78;5095147;28;20442;-66
2023/08/25 09:35:39;;;;;;;9.93;5.40;;;;;;;20.85;100.00;99708.66;5094820;28;20036;-66
2023/08/25 09:38:05;;;;;;;9.88;4.70;;;;;;;20.90;100.00;99732.28;5094875;28;20048;-66
2023/08/25 09:40:31;;;;;;;9.60;4.55;;;;;;;20.93;100.00;99737.19;5094564;28;20054;-66
2023/08/25 09:43:00;;;;;;;11.20;4.75;;;;;;;20.98;100.00;99752.66;5094778;28;20031;-66
2023/08/25 09:45:28;;;;;;;13.57;4.75;;;;;;;20.99;100.00;99741.56;5094747;28;20051;-65
2023/08/25 09:48:06;;;;;;;7.72;5.10;;;;;;;21.01;100.00;99742.16;5094819;28;20059;-65
2023/08/25 09:50:37;;;;;;;7.88;4.72;;;;;;;21.01;100.00;99744.03;5094432;28;20058;-66
2023/08/25 09:53:04;;;;;;;8.75;4.90;;;;;;;21.04;100.00;99736.22;5094742;28;20435;-66
2023/08/25 09:55:30;;;;;;;10.07;5.15;;;;;;;21.07;100.00;99729.50;5093460;28;20110;-66
2023/08/25 09:57:56;;;;;;;8.85;4.13;;;;;;;21.09;100.00;99746.28;5094651;28;20457;-66
2023/08/25 10:00:22;;;;;;;7.50;4.80;;;;;;;21.09;100.00;99768.78;5094106;28;20398;-66
2023/08/25 10:02:50;;;;;;;8.75;4.07;;;;;;;21.09;100.00;99754.41;5094543;28;20036;-66
2023/08/25 10:05:17;;;;;;;8.43;4.35;;;;;;;21.13;100.00;99736.59;5094291;28;20040;-66
2023/08/25 10:07:43;;;;;;;7.75;4.18;;;;;;;21.10;100.00;99723.56;5094257;28;20036;-66
2023/08/25 10:10:09;;;;;;;7.80;3.92;;;;;;;21.14;100.00;99749.88;5093881;28;20040;-66
2023/08/25 10:12:37;;;;;;;8.60;4.55;;;;;;;21.18;100.00;99739.34;5094209;28;20036;-66
2023/08/25 10:15:07;;;;;;;7.53;4.50;;;;;;;21.24;100.00;99732.09;5094148;28;20038;-66
2023/08/25 10:17:35;;;;;;;5.32;3.72;;;;;;;21.29;100.00;99705.09;5093969;28;20039;-66
2023/08/25 10:20:05;;;;;;;8.43;4.55;;;;;;;21.35;100.00;99691.34;5093819;28;20564;-65
2023/08/25 10:22:33;;;;;;;7.55;4.00;;;;;;;21.46;100.00;99742.91;5093929;28;20040;-67
2023/08/25 10:25:05;;;;;;;8.90;4.53;;;;;;;21.55;100.00;99746.78;5094046;28;20036;-66
2023/08/25 10:27:32;;;;;;;6.90;4.50;;;;;;;21.64;100.00;99750.66;5093935;28;20115;-66
2023/08/25 10:29:59;;;;;;;8.48;4.03;;;;;;;21.82;100.00;99765.72;5084180;28;20040;-66
2023/08/25 10:32:48;;;;;;;6.00;4.18;;;;;;;21.98;100.00;99763.97;5076433;28;20044;-66
2023/08/25 10:35:14;;;;;;;6.28;4.07;;;;;;;22.11;100.00;99768.97;5073645;28;20032;-66
2023/08/25 10:37:39;;;;;;;7.28;3.85;;;;;;;22.27;100.00;99772.59;5073598;28;20044;-66
2023/08/25 10:40:10;;;;;;;6.63;3.70;;;;;;;22.45;100.00;99764.03;5073348;28;20041;-66
2023/08/25 10:42:36;;;;;;;6.95;4.05;;;;;;;22.58;100.00;99762.72;5073270;28;20036;-67
2023/08/25 10:45:09;;;;;;;5.25;3.78;;;;;;;22.82;100.00;99752.22;5073417;28;20040;-66
2023/08/25 10:47:45;;;;;;;6.93;3.53;;;;;;;22.98;100.00;99752.06;5072191;28;20036;-66
2023/08/25 10:50:10;;;;;;;7.53;4.30;;;;;;;23.28;100.00;99755.97;5073087;28;20048;-66
2023/08/25 10:52:42;;;;;;;7.78;4.03;;;;;;;23.66;100.00;99753.84;5073211;28;20036;-66
2023/08/25 10:55:25;;;;;;;4.93;3.50;;;;;;;23.86;100.00;99744.88;5073215;28;20394;-66
2023/08/25 10:57:51;;;;;;;7.95;3.80;;;;;;;23.94;100.00;99744.34;5073207;28;20044;-66
2023/08/25 11:00:25;;;;;;;6.72;3.80;;;;;;;24.03;100.00;99735.34;5072921;28;20090;-66
2023/08/25 11:02:51;;;;;;;7.03;3.60;;;;;;;24.16;100.00;99728.53;5072975;28;20568;-66
2023/08/25 11:05:26;;;;;;;6.90;3.72;;;;;;;24.39;100.00;99734.47;5073042;28;20028;-66
2023/08/25 11:07:53;;;;;;;6.63;3.38;;;;;;;24.51;100.00;99735.00;5073007;28;20037;-66
2023/08/25 11:10:21;;;;;;;4.90;3.90;;;;;;;24.60;100.00;99731.44;5072606;28;20064;-66
2023/08/25 11:12:51;;;;;;;4.03;3.03;;;;;;;24.81;100.00;99737.59;5072852;28;20044;-66
2023/08/25 11:15:17;;;;;;;4.57;3.35;;;;;;;24.91;100.00;99734.03;5072735;28;20090;-66
2023/08/25 11:17:42;;;;;;;5.93;3.65;;;;;;;25.17;100.00;99741.00;5072778;28;20032;-66
2023/08/25 11:20:08;;;;;;;5.90;3.60;;;;;;;25.39;91.29;99734.31;5072349;28;20040;-66
2023/08/25 11:22:34;;;;;;;6.13;3.30;;;;;;;25.49;85.79;99733.41;5072683;28;20487;-66
2023/08/25 11:24:59;;;;;;;5.18;3.28;;;;;;;25.36;88.50;99724.78;5072741;28;20093;-66
2023/08/25 11:27:25;;;;;;;5.97;3.40;;;;;;;25.31;81.15;99738.47;5072451;28;20044;-65
2023/08/25 11:29:51;;;;;;;7.40;2.80;;;;;;;25.21;81.83;99721.34;5071952;28;20037;-65
2023/08/25 11:32:16;;;;;;;3.58;2.55;;;;;;;25.15;81.51;99721.38;5072201;28;20127;-66
2023/08/25 11:34:47;;;;;;;5.82;2.80;;;;;;;24.90;85.23;99716.84;5072349;28;20136;-66
2023/08/25 11:37:14;;;;;;;4.90;2.85;;;;;;;24.93;85.21;99710.03;5072440;28;20047;-67
2023/08/25 11:39:43;;;;;;;4.07;2.22;;;;;;;24.82;83.48;99711.19;5072165;28;20115;-67
2023/08/25 11:42:09;;;;;;;4.47;2.42;;;;;;;24.79;82.02;99703.59;5072367;28;20399;-67
2023/08/25 11:44:39;;;;;;;4.53;2.70;;;;;;;24.63;81.84;99695.47;5072343;28;20040;-67
2023/08/25 11:47:05;;;;;;;6.97;2.65;;;;;;;24.75;80.98;99691.59;5072226;28;20491;-67
2023/08/25 11:49:32;;;;;;;4.07;2.67;;;;;;;24.64;83.31;99672.59;5078225;28;20077;-66
2023/08/25 11:51:58;;;;;;;4.78;2.60;;;;;;;24.51;81.29;99658.78;5080524;28;20031;-67
2023/08/25 11:54:24;;;;;;;4.88;2.63;;;;;;;24.39;83.17;99653.66;5079601;28;20055;-67
2023/08/25 11:56:51;;;;;;;5.00;2.78;;;;;;;24.27;84.20;99647.69;5082484;28;20032;-67
2023/08/25 11:59:18;;;;;;;5.13;2.90;;;;;;;24.23;84.86;99652.88;5081792;28;20028;-66
2023/08/25 12:01:46;;;;;;;5.05;2.53;;;;;;;24.18;86.32;99644.72;5080707;28;20024;-67
2023/08/25 12:04:24;;;;;;;4.13;2.60;;;;;;;24.13;86.35;99630.34;5079812;28;20085;-66
2023/08/25 12:06:57;;;;;;;3.38;2.45;;;;;;;24.18;87.08;99619.41;5080655;28;20368;-66
2023/08/25 12:09:23;;;;;;;5.80;2.80;;;;;;;24.34;88.12;99621.84;5080890;28;20101;-65
2023/08/25 12:11:50;;;;;;;3.90;2.70;;;;;;;24.47;84.61;99604.09;5082921;28;20024;-65
2023/08/25 12:14:26;;;;;;;3.85;2.53;;;;;;;24.66;83.47;99598.00;5083486;28;20283;-66
2023/08/25 12:16:51;;;;;;;4.85;2.67;;;;;;;24.73;82.66;99598.50;5080364;28;20029;-66
2023/08/25 12:19:17;;;;;;;4.72;2.60;;;;;;;24.88;80.87;99599.19;5081704;28;20493;-66
2023/08/25 12:21:42;;;;;;;5.45;3.20;;;;;;;24.93;82.14;99620.16;5065485;28;20059;-66
2023/08/25 12:24:08;;;;;;;5.03;2.80;;;;;;;24.97;79.52;99621.19;5080541;28;20028;-66
2023/08/25 12:26:33;;;;;;;5.10;2.70;;;;;;;24.96;80.58;99633.19;5082259;28;20071;-66
2023/08/25 12:28:59;;;;;;;3.55;2.47;;;;;;;25.00;79.38;99625.28;5080996;28;20028;-66
2023/08/25 12:31:24;;;;;;;2.70;2.50;;;;;;;25.01;78.91;99614.09;5080727;28;20043;-66
2023/08/25 12:33:50;;;;;;;4.90;2.67;;;;;;;25.10;78.63;99625.22;5082393;28;20475;-66
2023/08/25 12:36:15;;;;;;;4.70;3.03;;;;;;;25.20;78.75;99625.16;5080680;28;20060;-66
2023/08/25 12:38:41;;;;;;;7.68;3.85;;;;;;;25.40;78.47;99645.97;5081182;28;20027;-66
2023/08/25 12:41:06;;;;;;;5.68;3.42;;;;;;;25.59;81.70;99695.97;5082070;28;20054;-68
2023/08/25 12:43:33;;;;;;;6.70;3.00;;;;;;;25.75;85.18;99713.03;5082781;28;20044;-67
2023/08/25 12:45:58;;;;;;;4.50;2.70;;;;;;;25.98;82.93;99695.13;5087097;28;20040;-68
2023/08/25 12:48:24;;;;;;;8.00;2.78;;;;;;;26.10;79.15;99692.81;5083568;28;20032;-68
2023/08/25 12:50:50;;;;;;;3.58;2.70;;;;;;;25.99;79.77;99699.47;5086587;28;20040;-68
2023/08/25 12:53:15;;;;;;;6.22;3.55;;;;;;;26.09;81.97;99699.38;5089807;28;20110;-68
2023/08/25 12:55:40;;;;;;;3.88;2.90;;;;;;;26.15;83.65;99706.41;5089575;28;20090;-68
2023/08/25 12:58:06;;;;;;;3.95;2.97;;;;;;;26.43;80.45;99702.03;5085146;28;20093;-68
2023/08/25 13:00:31;;;;;;;4.10;2.72;;;;;;;26.69;77.32;99707.19;5069189;28;20033;-68
2023/08/25 13:02:57;;;;;;;4.72;2.72;;;;;;;27.19;72.82;99713.06;5095527;28;20040;-68
2023/08/25 13:05:23;;;;;;;6.15;3.35;;;;;;;27.71;68.92;99712.00;5095647;28;20032;-68
2023/08/25 13:07:48;;;;;;;5.28;2.95;;;;;;;27.97;66.71;99720.56;5095399;28;20432;-66
2023/08/25 13:10:14;;;;;;;4.10;2.60;;;;;;;28.65;65.79;99708.06;5095155;28;20046;-68
2023/08/25 13:12:40;;;;;;;5.00;2.90;;;;;;;28.60;67.27;99728.16;5095234;28;20441;-69
2023/08/25 13:15:07;;;;;;;3.65;2.88;;;;;;;28.83;64.65;99720.03;5095221;28;20038;-67
2023/08/25 13:17:33;;;;;;;6.65;3.08;;;;;;;29.04;64.29;99704.78;5094747;28;20514;-68
2023/08/25 13:19:58;;;;;;;3.15;2.63;;;;;;;29.45;60.57;99701.88;5094931;28;20036;-68
2023/08/25 13:22:23;;;;;;;5.40;2.20;;;;;;;29.59;58.87;99690.88;5095153;28;20429;-68
2023/08/25 13:24:49;;;;;;;4.80;2.42;;;;;;;29.84;57.83;99683.13;5095331;28;20063;-67
2023/08/25 13:27:15;;;;;;;4.82;2.60;;;;;;;30.29;55.24;99677.53;5094965;28;20048;-68
2023/08/25 13:29:41;;;;;;;4.20;2.40;;;;;;;30.84;50.92;99671.53;5094629;28;20028;-67
2023/08/25 13:32:07;;;;;;;3.75;2.78;;;;;;;30.69;51.11;99678.31;5094993;28;20497;-65
2023/08/25 13:34:32;;;;;;;4.25;2.67;;;;;;;30.53;53.11;99672.44;5094983;28;20120;-66
2023/08/25 13:36:58;;;;;;;2.90;2.60;;;;;;;30.47;52.28;99679.22;5094869;28;20123;-66
2023/08/25 13:39:23;;;;;;;4.50;2.63;;;;;;;30.30;52.35;99674.47;5094678;28;20071;-66
2023/08/25 13:41:49;;;;;;;3.80;2.57;;;;;;;30.61;51.27;99684.56;5094774;28;20040;-67
2023/08/25 13:44:14;;;;;;;5.30;2.72;;;;;;;30.05;52.92;99689.69;5094718;28;20040;-67
2023/08/25 13:46:39;;;;;;;5.55;2.63;;;;;;;29.71;53.79;99684.81;5094599;28;20403;-66
2023/08/25 13:49:05;;;;;;;6.32;3.25;;;;;;;29.46;55.07;99686.22;5094666;28;20075;-67
2023/08/25 13:51:31;;;;;;;3.30;2.20;;;;;;;29.03;54.09;99688.66;5094549;28;20040;-66
2023/08/25 13:53:59;;;;;;;3.90;2.50;;;;;;;28.76;55.82;99697.72;5093914;28;20039;-66
2023/08/25 13:56:25;;;;;;;3.42;2.55;;;;;;;28.43;58.58;99694.28;5094279;28;20036;-67
2023/08/25 13:58:50;;;;;;;4.15;2.42;;;;;;;28.16;59.20;99692.31;5094069;28;20055;-67
2023/08/25 14:01:19;;;;;;;4.68;2.42;;;;;;;27.91;59.68;99707.28;5094442;28;20039;-66
2023/08/25 14:03:47;;;;;;;4.20;2.38;;;;;;;27.74;60.70;99694.19;5094266;28;20036;-66
2023/08/25 14:06:14;;;;;;;4.25;2.75;;;;;;;27.72;60.86;99691.75;5094234;28;20505;-66
2023/08/25 14:08:40;;;;;;;3.08;2.20;;;;;;;27.70;62.86;99691.22;5094260;28;20043;-66
2023/08/25 14:11:06;;;;;;;3.60;2.35;;;;;;;27.80;62.32;99699.25;5093981;28;20384;-66
2023/08/25 14:13:31;;;;;;;3.20;2.58;;;;;;;27.72;63.52;99701.88;5094406;28;20048;-66
2023/08/25 14:15:56;;;;;;;3.88;2.63;;;;;;;27.77;64.57;99690.81;5094009;28;20040;-66
2023/08/25 14:18:22;;;;;;;3.03;2.20;;;;;;;27.79;64.48;99697.63;5094096;28;20173;-66
2023/08/25 14:20:49;;;;;;;3.22;2.33;;;;;;;27.88;61.85;99697.75;5093747;28;20044;-66
2023/08/25 14:23:14;;;;;;;4.78;3.00;;;;;;;27.90;58.47;99687.31;5094160;28;20050;-66
2023/08/25 14:25:39;;;;;;;4.05;2.70;;;;;;;27.96;58.16;99688.84;5094013;28;20032;-66
2023/08/25 14:28:06;;;;;;;4.95;3.03;;;;;;;28.02;56.24;99689.56;5093889;28;20082;-66
2023/08/25 14:30:33;;;;;;;3.30;2.60;;;;;;;27.98;58.17;99689.38;5093593;28;20095;-66
2023/08/25 14:32:59;;;;;;;6.75;2.63;;;;;;;28.07;57.51;99686.72;5093848;28;20034;-66
2023/08/25 14:35:24;;;;;;;4.28;2.35;;;;;;;28.05;57.72;99695.25;5093735;28;20510;-66
2023/08/25 14:37:50;;;;;;;4.05;2.65;;;;;;;28.10;57.99;99694.31;5093649;28;20042;-66
2023/08/25 14:40:15;;;;;;;3.85;3.00;;;;;;;28.12;62.55;99692.94;5093459;28;20040;-66
2023/08/25 14:42:41;;;;;;;4.00;2.25;;;;;;;28.03;61.74;99680.22;5093564;28;20398;-66
2023/08/25 14:45:07;;;;;;;3.63;2.45;;;;;;;28.05;60.96;99672.53;5093481;28;20126;-66
2023/08/25 14:47:32;;;;;;;3.63;2.47;;;;;;;28.07;60.00;99679.34;5093621;28;20040;-66
2023/08/25 14:49:58;;;;;;;5.40;2.70;;;;;;;28.00;61.47;99689.06;5093218;28;20067;-66
2023/08/25 14:52:25;;;;;;;3.88;2.65;;;;;;;27.97;62.78;99689.66;5093448;28;20050;-66
2023/08/25 14:54:52;;;;;;;5.72;2.78;;;;;;;28.03;63.04;99685.69;5093360;28;20036;-66
2023/08/25 14:57:18;;;;;;;5.55;2.47;;;;;;;28.00;61.32;99691.78;5093273;28;20445;-66
2023/08/25 14:59:43;;;;;;;4.10;2.60;;;;;;;28.00;60.78;99697.28;5092940;28;20032;-66
2023/08/25 15:02:09;;;;;;;5.03;3.13;;;;;;;27.84;60.67;99689.34;5093321;28;20376;-66
2023/08/25 15:04:35;;;;;;;5.20;2.55;;;;;;;27.73;61.55;99687.09;5092866;28;20466;-66
2023/08/25 15:07:01;;;;;;;3.20;2.38;;;;;;;27.68;61.01;99679.78;5092561;28;20047;-66
2023/08/25 15:09:26;;;;;;;3.15;2.50;;;;;;;27.74;62.18;99691.44;5092666;28;20035;-66
2023/08/25 15:11:52;;;;;;;3.85;2.67;;;;;;;27.76;62.30;99691.94;5092880;28;20402;-66
2023/08/25 15:14:17;;;;;;;4.53;2.95;;;;;;;27.80;64.13;99692.97;5093000;28;20138;-66
2023/08/25 15:16:42;;;;;;;5.82;2.58;;;;;;;27.75;62.79;99684.84;5092870;28;20051;-66
2023/08/25 15:19:08;;;;;;;3.72;2.80;;;;;;;27.75;63.53;99685.66;5092676;28;20042;-66
2023/08/25 15:21:33;;;;;;;5.63;3.42;;;;;;;27.78;63.67;99684.28;5092839;28;20032;-66
2023/08/25 15:23:59;;;;;;;4.10;2.80;;;;;;;27.72;62.17;99671.78;5092884;28;20047;-66
2023/08/25 15:26:24;;;;;;;4.05;2.58;;;;;;;27.74;64.66;99677.75;5092719;28;20044;-66
2023/08/25 15:28:49;;;;;;;4.25;2.90;;;;;;;27.68;62.74;99663.34;5092556;28;20040;-66
2023/08/25 15:31:15;;;;;;;3.90;2.45;;;;;;;27.65;63.16;99658.47;5092589;28;20040;-66
2023/08/25 15:33:43;;;;;;;5.05;2.50;;;;;;;27.54;64.49;99648.81;5092527;28;20035;-66
2023/08/25 15:36:11;;;;;;;4.03;2.70;;;;;;;27.50;64.94;99631.38;5092618;28;20051;-66
2023/08/25 15:38:36;;;;;;;3.40;2.50;;;;;;;27.54;63.72;99635.13;5091297;28;20048;-66
2023/08/25 15:41:07;;;;;;;2.72;2.45;;;;;;;27.52;63.50;99632.72;5092342;28;20032;-66
2023/08/25 15:43:33;;;;;;;4.72;2.80;;;;;;;27.52;63.40;99631.91;5092507;28;20127;-66
2023/08/25 15:45:59;;;;;;;3.10;2.63;;;;;;;27.61;65.58;99634.75;5092491;28;20047;-65